Latest Weather Observations for Sydney Harbour

IDN60901

Issued at 7:35 pm EDT Sunday 1 February 2015 (issued every 10 minutes, with the page automatically refreshed every 10 minutes)

About weather observations | Map of Sydney area stations | Latest observations for Sydney area | Other Formats
Station Details ID: 066196 Name: WEDDING CAKE WEST Lat: -33.84 Lon: 151.26 Height: 6.0 m
Data from the previous 72 hours. | See also: Recent months for locations in New South Wales
Date/Time
EDT
Tmp

°C
App
Tmp
°C
Dew
Point
°C
Rel
Hum
%
Delta-T

°C
Wind Press
QNH
hPa
Press
MSL
hPa
Rain
since
9 am
mm
Dir
 
Spd
km/h
Gust
km/h
Spd
kts
Gust
kts
01/07:30pm 22.5 - - - - S 20 28 11 15 - - -
01/07:00pm 22.7 - - - - SSE 20 28 11 15 - - -
01/06:30pm 23.2 - - - - SSE 22 32 12 17 - - -
01/06:00pm 22.5 - - - - SSE 24 30 13 16 - - -
01/05:30pm 22.7 - - - - SE 20 30 11 16 - - -
01/05:00pm 22.5 - - - - ESE 22 28 12 15 - - -
01/04:30pm 22.6 - - - - SE 20 28 11 15 - - -
01/04:00pm 22.6 - - - - SE 20 24 11 13 - - -
01/03:30pm 22.4 - - - - ESE 22 30 12 16 - - -
01/03:00pm 22.8 - - - - ESE 15 22 8 12 - - -
01/02:30pm 22.7 - - - - ESE 19 26 10 14 - - -
01/02:00pm 22.7 - - - - E 15 20 8 11 - - -
01/01:30pm 22.5 - - - - SE 17 22 9 12 - - -
01/01:00pm 22.5 - - - - E 17 26 9 14 - - -
01/12:30pm 22.6 - - - - SE 19 24 10 13 - - -
01/12:00pm 22.2 - - - - SE 22 26 12 14 - - -
01/11:30am 22.6 - - - - SSE 20 24 11 13 - - -
01/11:00am 22.2 - - - - SSW 11 15 6 8 - - -
01/10:30am 22.0 - - - - SW 15 19 8 10 - - -
01/10:00am 21.7 - - - - SW 15 19 8 10 - - -
01/09:30am 21.7 - - - - SSW 11 13 6 7 - - -
01/09:00am 21.3 - - - - SSW 13 17 7 9 - - -
01/08:30am 20.9 - - - - SSW 13 15 7 8 - - -
01/08:00am 20.7 - - - - SW 17 20 9 11 - - -
01/07:30am 20.6 - - - - SW 17 20 9 11 - - -
01/07:00am 20.6 - - - - SW 13 15 7 8 - - -
01/06:30am 20.4 - - - - SSW 13 17 7 9 - - -
01/06:00am 20.4 - - - - SW 15 17 8 9 - - -
01/05:30am 20.5 - - - - SW 11 15 6 8 - - -
01/05:00am 20.7 - - - - SW 13 15 7 8 - - -
01/04:30am 20.7 - - - - SW 11 15 6 8 - - -
01/04:00am 20.8 - - - - SW 13 17 7 9 - - -
01/03:30am 20.8 - - - - SW 11 15 6 8 - - -
01/03:00am 21.0 - - - - SSW 13 17 7 9 - - -
01/02:30am 21.3 - - - - S 9 15 5 8 - - -
01/02:00am 21.7 - - - - SSE 7 7 4 4 - - -
01/01:30am 21.7 - - - - SSE 4 7 2 4 - - -
01/01:00am 21.8 - - - - SSE 6 7 3 4 - - -
01/12:30am 21.8 - - - - SSE 6 7 3 4 - - -
01/12:00am 22.2 - - - - SSE 7 9 4 5 - - -
 
Date/Time
EDT
Tmp

°C
App
Tmp
°C
Dew
Point
°C
Rel
Hum
%
Delta-T

°C
Wind Press
QNH
hPa
Press
MSL
hPa
Rain
since
9 am
mm
Dir
 
Spd
km/h
Gust
km/h
Spd
kts
Gust
kts
31/11:30pm 21.9 - - - - SSE 7 9 4 5 - - -
31/11:00pm 21.9 - - - - SE 9 11 5 6 - - -
31/10:30pm 21.9 - - - - SE 7 9 4 5 - - -
31/10:00pm 21.9 - - - - SE 9 9 5 5 - - -
31/09:30pm 21.9 - - - - SE 7 9 4 5 - - -
31/09:00pm 22.2 - - - - SE 9 11 5 6 - - -
31/08:30pm 22.2 - - - - SE 11 15 6 8 - - -
31/08:00pm 22.4 - - - - SE 13 17 7 9 - - -
31/07:30pm 22.4 - - - - SE 15 19 8 10 - - -
31/07:00pm 22.5 - - - - ESE 11 15 6 8 - - -
31/06:30pm 22.5 - - - - SE 17 20 9 11 - - -
31/06:00pm 22.7 - - - - SE 17 20 9 11 - - -
31/05:30pm 22.5 - - - - SE 19 22 10 12 - - -
31/05:00pm 23.2 - - - - ESE 17 22 9 12 - - -
31/04:30pm 22.9 - - - - ESE 17 24 9 13 - - -
31/04:00pm 23.3 - - - - E 15 20 8 11 - - -
31/03:30pm 23.2 - - - - E 17 20 9 11 - - -
31/03:00pm 23.0 - - - - E 19 24 10 13 - - -
31/02:30pm 22.6 - - - - SE 19 24 10 13 - - -
31/02:00pm 22.7 - - - - ESE 17 20 9 11 - - -
31/01:30pm 22.3 - - - - ESE 19 22 10 12 - - -
31/01:00pm 22.1 - - - - ESE 19 26 10 14 - - -
31/12:30pm 21.9 - - - - SE 20 26 11 14 - - -
31/12:00pm 21.5 - - - - SE 22 28 12 15 - - -
31/11:30am 21.4 - - - - SE 19 24 10 13 - - -
31/11:00am 22.6 - - - - S 11 17 6 9 - - -
31/10:30am 22.2 - - - - WSW 6 7 3 4 - - -
31/10:00am 21.5 - - - - WSW 6 7 3 4 - - -
31/09:30am 22.2 - - - - CALM 0 0 0 0 - - -
31/09:00am 20.3 - - - - WSW 9 11 5 6 - - -
31/08:30am 19.6 - - - - WSW 9 11 5 6 - - -
31/08:00am 19.4 - - - - W 4 13 2 7 - - -
31/07:30am 19.6 - - - - W 9 11 5 6 - - -
31/07:00am 18.6 - - - - W 13 15 7 8 - - -
31/06:30am 18.1 - - - - WSW 11 13 6 7 - - -
31/06:00am 18.4 - - - - W 13 15 7 8 - - -
31/05:30am 19.1 - - - - W 13 17 7 9 - - -
31/05:00am 19.0 - - - - W 11 15 6 8 - - -
31/04:30am 19.5 - - - - SSW 7 9 4 5 - - -
31/04:00am 19.9 - - - - SW 17 20 9 11 - - -
31/03:30am 20.0 - - - - SW 17 20 9 11 - - -
31/03:00am 20.1 - - - - SW 19 20 10 11 - - -
31/02:30am 20.4 - - - - SW 20 24 11 13 - - -
31/02:00am 20.5 - - - - SW 19 24 10 13 - - -
31/01:30am 20.6 - - - - SW 20 24 11 13 - - -
31/01:00am 20.8 - - - - SSW 19 24 10 13 - - -
31/12:30am 21.0 - - - - SSW 20 26 11 14 - - -
31/12:00am 21.0 - - - - SSW 20 24 11 13 - - -
 
Date/Time
EDT
Tmp

°C
App
Tmp
°C
Dew
Point
°C
Rel
Hum
%
Delta-T

°C
Wind Press
QNH
hPa
Press
MSL
hPa
Rain
since
9 am
mm
Dir
 
Spd
km/h
Gust
km/h
Spd
kts
Gust
kts
30/11:30pm 21.2 - - - - SSW 17 20 9 11 - - -
30/11:00pm 21.2 - - - - SSW 15 22 8 12 - - -
30/10:30pm 21.3 - - - - SSW 20 26 11 14 - - -
30/10:00pm 21.4 - - - - SSW 17 26 9 14 - - -
30/09:30pm 21.5 - - - - SSW 24 33 13 18 - - -
30/09:00pm 21.6 - - - - SSW 24 30 13 16 - - -
30/08:30pm 21.6 - - - - S 22 30 12 16 - - -
30/08:00pm 21.6 - - - - S 28 35 15 19 - - -
30/07:30pm 22.0 - - - - S 28 37 15 20 - - -
30/07:00pm 22.2 - - - - S 26 32 14 17 - - -
30/06:30pm 22.4 - - - - S 26 33 14 18 - - -
30/06:00pm 22.4 - - - - S 22 33 12 18 - - -
30/05:30pm 22.5 - - - - S 17 22 9 12 - - -
30/05:00pm 23.2 - - - - SSE 20 30 11 16 - - -
30/04:30pm 23.0 - - - - SSE 24 32 13 17 - - -
30/04:00pm 23.4 - - - - SSE 20 28 11 15 - - -
30/03:30pm 22.4 - - - - SSE 28 39 15 21 - - -
30/03:00pm 22.4 - - - - SSE 19 28 10 15 - - -
30/02:30pm 22.9 - - - - SW 28 46 15 25 - - -
30/02:29pm 23.2 - - - - WSW 28 46 15 25 - - -
30/02:00pm 23.2 - - - - WSW 32 46 17 25 - - -
30/01:30pm 22.6 - - - - WSW 32 50 17 27 - - -
30/01:29pm 22.5 - - - - WSW 32 50 17 27 - - -
30/01:25pm 22.5 - - - - WSW 35 50 19 27 - - -
30/01:00pm 21.7 - - - - SW 22 30 12 16 - - -
30/12:30pm 21.9 - - - - WSW 26 39 14 21 - - -
30/12:00pm 21.0 - - - - WSW 19 30 10 16 - - -
30/11:30am 20.2 - - - - WSW 20 32 11 17 - - -
30/11:00am 19.7 - - - - WSW 20 28 11 15 - - -
30/10:30am 19.2 - - - - W 22 33 12 18 - - -
30/10:00am 18.8 - - - - WSW 24 35 13 19 - - -
30/09:30am 18.5 - - - - WSW 24 35 13 19 - - -
30/09:00am 18.1 - - - - WSW 26 33 14 18 - - -
30/08:30am 17.8 - - - - W 26 35 14 19 - - -
30/08:00am 17.7 - - - - W 24 33 13 18 - - -
30/07:30am 16.9 - - - - W 28 33 15 18 - - -
30/07:00am 16.7 - - - - W 22 28 12 15 - - -
30/06:30am 16.7 - - - - W 24 30 13 16 - - -
30/06:00am 16.6 - - - - W 20 28 11 15 - - -
30/05:30am 16.8 - - - - W 22 28 12 15 - - -
30/05:00am 17.1 - - - - W 20 26 11 14 - - -
30/04:30am 17.3 - - - - W 24 37 13 20 - - -
30/04:00am 17.4 - - - - W 22 30 12 16 - - -
30/03:30am 17.6 - - - - W 20 28 11 15 - - -
30/03:00am 17.5 - - - - W 24 30 13 16 - - -
30/02:30am 17.6 - - - - WSW 22 30 12 16 - - -
30/02:00am 17.8 - - - - WSW 24 30 13 16 - - -
30/01:30am 17.9 - - - - WSW 22 32 12 17 - - -
30/01:00am 17.9 - - - - W 22 30 12 16 - - -
30/12:30am 18.5 - - - - SW 30 37 16 20 - - -
30/12:00am 18.7 - - - - SW 30 37 16 20 - - -
 
Date/Time
EDT
Tmp

°C
App
Tmp
°C
Dew
Point
°C
Rel
Hum
%
Delta-T

°C
Wind Press
QNH
hPa
Press
MSL
hPa
Rain
since
9 am
mm
Dir
 
Spd
km/h
Gust
km/h
Spd
kts
Gust
kts
29/11:30pm 19.0 - - - - SSW 33 44 18 24 - - -
29/11:00pm 19.2 - - - - SSW 37 48 20 26 - - -
29/10:30pm 19.5 - - - - SSW 37 50 20 27 - - -
29/10:00pm 19.7 - - - - SSW 39 50 21 27 - - -
29/09:30pm 19.9 - - - - SSW 43 57 23 31 - - -
29/09:10pm 19.8 - - - - SSW 41 59 22 32 - - -
29/09:00pm 19.9 - - - - SSW 46 57 25 31 - - -
29/08:30pm 20.0 - - - - SSW 46 67 25 36 - - -
29/08:04pm 20.2 - - - - SSW 46 65 25 35 - - -
29/08:00pm 20.1 - - - - SSW 50 65 27 35 - - -

Latest Capital City Observations: Canberra | Sydney | Melbourne | Brisbane | Adelaide | Perth | Hobart | Darwin

Other Formats:

Comma delimited format used in spreadsheet applications
http://www.bom.gov.au/fwo/IDN60901/IDN60901.95766.axf

JavaScript Object Notation format (JSON) in row-major order
http://www.bom.gov.au/fwo/IDN60901/IDN60901.95766.json